sensor_id;sensor_type;location;lat;lon;timestamp;P1;durP1;ratioP1;P2;durP2;ratioP2
37049;SDS011;22958;51.232;6.826;2023-05-15T00:01:46;32.65;;;14.65;;
37049;SDS011;22958;51.232;6.826;2023-05-15T00:04:11;28.50;;;14.17;;
37049;SDS011;22958;51.232;6.826;2023-05-15T00:06:37;32.23;;;14.67;;
37049;SDS011;22958;51.232;6.826;2023-05-15T00:09:02;21.03;;;13.00;;
37049;SDS011;22958;51.232;6.826;2023-05-15T00:11:28;23.60;;;12.00;;
37049;SDS011;22958;51.232;6.826;2023-05-15T00:13:54;21.13;;;11.13;;
37049;SDS011;22958;51.232;6.826;2023-05-15T00:16:19;18.37;;;10.73;;
37049;SDS011;22958;51.232;6.826;2023-05-15T00:18:45;25.30;;;11.93;;
37049;SDS011;22958;51.232;6.826;2023-05-15T00:21:10;27.67;;;12.27;;
37049;SDS011;22958;51.232;6.826;2023-05-15T00:23:36;20.07;;;11.37;;
37049;SDS011;22958;51.232;6.826;2023-05-15T00:26:01;21.30;;;12.03;;
37049;SDS011;22958;51.232;6.826;2023-05-15T00:28:27;25.90;;;12.77;;
37049;SDS011;22958;51.232;6.826;2023-05-15T00:30:52;21.07;;;11.70;;
37049;SDS011;22958;51.232;6.826;2023-05-15T00:33:18;24.43;;;12.50;;
37049;SDS011;22958;51.232;6.826;2023-05-15T00:35:43;16.63;;;10.87;;
37049;SDS011;22958;51.232;6.826;2023-05-15T00:38:10;23.90;;;11.57;;
37049;SDS011;22958;51.232;6.826;2023-05-15T00:40:35;30.47;;;14.77;;
37049;SDS011;22958;51.232;6.826;2023-05-15T00:43:02;26.50;;;13.13;;
37049;SDS011;22958;51.232;6.826;2023-05-15T00:45:29;19.98;;;12.55;;
37049;SDS011;22958;51.232;6.826;2023-05-15T00:47:54;32.10;;;18.20;;
37049;SDS011;22958;51.232;6.826;2023-05-15T00:50:23;37.00;;;21.38;;
37049;SDS011;22958;51.232;6.826;2023-05-15T00:52:49;36.97;;;22.90;;
37049;SDS011;22958;51.232;6.826;2023-05-15T00:55:15;51.07;;;26.67;;
37049;SDS011;22958;51.232;6.826;2023-05-15T00:57:41;48.90;;;26.47;;
37049;SDS011;22958;51.232;6.826;2023-05-15T01:00:08;46.65;;;25.98;;
37049;SDS011;22958;51.232;6.826;2023-05-15T01:02:37;47.22;;;27.48;;
37049;SDS011;22958;51.232;6.826;2023-05-15T01:05:03;57.72;;;30.00;;
37049;SDS011;22958;51.232;6.826;2023-05-15T01:07:32;48.58;;;28.88;;
37049;SDS011;22958;51.232;6.826;2023-05-15T01:10:01;55.75;;;29.33;;
37049;SDS011;22958;51.232;6.826;2023-05-15T01:14:54;45.10;;;25.80;;
37049;SDS011;22958;51.232;6.826;2023-05-15T01:17:20;48.40;;;24.65;;
37049;SDS011;22958;51.232;6.826;2023-05-15T01:19:46;46.33;;;25.77;;
37049;SDS011;22958;51.232;6.826;2023-05-15T01:25:08;39.30;;;22.90;;
37049;SDS011;22958;51.232;6.826;2023-05-15T01:27:40;48.50;;;25.75;;
37049;SDS011;22958;51.232;6.826;2023-05-15T01:30:22;56.28;;;28.17;;
37049;SDS011;22958;51.232;6.826;2023-05-15T01:33:00;64.13;;;34.47;;
37049;SDS011;22958;51.232;6.826;2023-05-15T01:38:12;68.30;;;36.30;;
37049;SDS011;22958;51.232;6.826;2023-05-15T01:40:59;62.50;;;36.17;;
37049;SDS011;22958;51.232;6.826;2023-05-15T01:43:30;76.72;;;38.67;;
37049;SDS011;22958;51.232;6.826;2023-05-15T01:45:57;76.45;;;40.47;;
37049;SDS011;22958;51.232;6.826;2023-05-15T01:48:23;78.53;;;41.23;;
37049;SDS011;22958;51.232;6.826;2023-05-15T01:50:50;94.90;;;45.05;;
37049;SDS011;22958;51.232;6.826;2023-05-15T01:53:18;71.85;;;39.90;;
37049;SDS011;22958;51.232;6.826;2023-05-15T01:55:44;84.95;;;44.03;;
37049;SDS011;22958;51.232;6.826;2023-05-15T01:58:11;143.63;;;51.40;;
37049;SDS011;22958;51.232;6.826;2023-05-15T02:00:38;169.48;;;60.45;;
37049;SDS011;22958;51.232;6.826;2023-05-15T02:03:05;157.00;;;57.17;;
37049;SDS011;22958;51.232;6.826;2023-05-15T02:05:31;130.48;;;54.15;;
37049;SDS011;22958;51.232;6.826;2023-05-15T02:07:58;98.15;;;44.90;;
37049;SDS011;22958;51.232;6.826;2023-05-15T02:10:26;76.53;;;40.35;;
37049;SDS011;22958;51.232;6.826;2023-05-15T02:12:52;69.47;;;38.15;;
37049;SDS011;22958;51.232;6.826;2023-05-15T02:15:19;71.03;;;37.25;;
37049;SDS011;22958;51.232;6.826;2023-05-15T02:17:45;70.40;;;37.13;;
37049;SDS011;22958;51.232;6.826;2023-05-15T02:20:11;77.00;;;36.80;;
37049;SDS011;22958;51.232;6.826;2023-05-15T02:22:38;65.70;;;36.47;;
37049;SDS011;22958;51.232;6.826;2023-05-15T02:25:03;66.57;;;34.73;;
37049;SDS011;22958;51.232;6.826;2023-05-15T02:27:37;64.43;;;33.72;;
37049;SDS011;22958;51.232;6.826;2023-05-15T02:32:53;54.13;;;31.77;;
37049;SDS011;22958;51.232;6.826;2023-05-15T02:38:28;59.53;;;32.53;;
37049;SDS011;22958;51.232;6.826;2023-05-15T02:40:57;63.03;;;34.15;;
37049;SDS011;22958;51.232;6.826;2023-05-15T02:43:25;62.88;;;34.10;;
37049;SDS011;22958;51.232;6.826;2023-05-15T02:45:51;60.85;;;32.20;;
37049;SDS011;22958;51.232;6.826;2023-05-15T02:48:17;56.67;;;33.13;;
37049;SDS011;22958;51.232;6.826;2023-05-15T02:50:43;66.25;;;34.88;;
37049;SDS011;22958;51.232;6.826;2023-05-15T02:53:09;60.73;;;33.70;;
37049;SDS011;22958;51.232;6.826;2023-05-15T02:55:35;59.40;;;32.13;;
37049;SDS011;22958;51.232;6.826;2023-05-15T02:58:02;56.75;;;32.83;;
37049;SDS011;22958;51.232;6.826;2023-05-15T03:00:28;58.88;;;33.45;;
37049;SDS011;22958;51.232;6.826;2023-05-15T03:02:54;55.63;;;32.90;;
37049;SDS011;22958;51.232;6.826;2023-05-15T03:05:19;58.73;;;31.60;;
37049;SDS011;22958;51.232;6.826;2023-05-15T03:07:45;67.57;;;33.67;;
37049;SDS011;22958;51.232;6.826;2023-05-15T03:10:11;62.83;;;35.50;;
37049;SDS011;22958;51.232;6.826;2023-05-15T03:12:37;62.73;;;36.67;;
37049;SDS011;22958;51.232;6.826;2023-05-15T03:15:03;64.10;;;35.75;;
37049;SDS011;22958;51.232;6.826;2023-05-15T03:17:29;62.50;;;35.58;;
37049;SDS011;22958;51.232;6.826;2023-05-15T03:19:55;64.67;;;35.93;;
37049;SDS011;22958;51.232;6.826;2023-05-15T03:22:20;72.53;;;35.90;;
37049;SDS011;22958;51.232;6.826;2023-05-15T03:24:46;69.53;;;36.77;;
37049;SDS011;22958;51.232;6.826;2023-05-15T03:27:12;69.77;;;37.90;;
37049;SDS011;22958;51.232;6.826;2023-05-15T03:29:37;82.13;;;41.20;;
37049;SDS011;22958;51.232;6.826;2023-05-15T03:32:03;77.73;;;39.60;;
37049;SDS011;22958;51.232;6.826;2023-05-15T03:34:28;74.83;;;39.13;;
37049;SDS011;22958;51.232;6.826;2023-05-15T03:36:54;77.70;;;40.63;;
37049;SDS011;22958;51.232;6.826;2023-05-15T03:39:19;74.37;;;38.53;;
37049;SDS011;22958;51.232;6.826;2023-05-15T03:41:45;83.37;;;40.30;;
37049;SDS011;22958;51.232;6.826;2023-05-15T03:44:10;83.80;;;41.43;;
37049;SDS011;22958;51.232;6.826;2023-05-15T03:46:36;84.17;;;43.67;;
37049;SDS011;22958;51.232;6.826;2023-05-15T03:49:01;89.33;;;40.57;;
37049;SDS011;22958;51.232;6.826;2023-05-15T03:51:27;91.47;;;41.67;;
37049;SDS011;22958;51.232;6.826;2023-05-15T03:53:53;102.37;;;45.63;;
37049;SDS011;22958;51.232;6.826;2023-05-15T03:56:18;109.63;;;45.23;;
37049;SDS011;22958;51.232;6.826;2023-05-15T03:58:45;106.70;;;48.38;;
37049;SDS011;22958;51.232;6.826;2023-05-15T04:01:10;108.40;;;49.37;;
37049;SDS011;22958;51.232;6.826;2023-05-15T04:03:36;103.73;;;48.13;;
37049;SDS011;22958;51.232;6.826;2023-05-15T04:06:01;119.50;;;50.63;;
37049;SDS011;22958;51.232;6.826;2023-05-15T04:08:27;162.37;;;60.63;;
37049;SDS011;22958;51.232;6.826;2023-05-15T04:10:52;207.00;;;69.53;;
37049;SDS011;22958;51.232;6.826;2023-05-15T04:13:18;191.63;;;67.13;;
37049;SDS011;22958;51.232;6.826;2023-05-15T04:15:44;189.27;;;67.70;;
37049;SDS011;22958;51.232;6.826;2023-05-15T04:18:09;192.57;;;69.97;;
37049;SDS011;22958;51.232;6.826;2023-05-15T04:20:35;191.57;;;70.67;;
37049;SDS011;22958;51.232;6.826;2023-05-15T04:23:00;204.80;;;73.97;;
37049;SDS011;22958;51.232;6.826;2023-05-15T04:25:27;202.10;;;71.10;;
37049;SDS011;22958;51.232;6.826;2023-05-15T04:27:53;200.80;;;73.77;;
37049;SDS011;22958;51.232;6.826;2023-05-15T04:30:18;221.53;;;75.90;;
37049;SDS011;22958;51.232;6.826;2023-05-15T04:32:45;193.13;;;76.18;;
37049;SDS011;22958;51.232;6.826;2023-05-15T04:35:11;189.80;;;73.90;;
37049;SDS011;22958;51.232;6.826;2023-05-15T04:37:38;205.50;;;75.55;;
37049;SDS011;22958;51.232;6.826;2023-05-15T04:40:05;192.48;;;78.47;;
37049;SDS011;22958;51.232;6.826;2023-05-15T04:44:58;207.98;;;79.43;;
37049;SDS011;22958;51.232;6.826;2023-05-15T04:47:24;194.50;;;77.80;;
37049;SDS011;22958;51.232;6.826;2023-05-15T04:49:49;178.30;;;75.37;;
37049;SDS011;22958;51.232;6.826;2023-05-15T04:52:15;185.43;;;72.33;;
37049;SDS011;22958;51.232;6.826;2023-05-15T04:54:41;180.25;;;72.18;;
37049;SDS011;22958;51.232;6.826;2023-05-15T04:57:07;171.60;;;72.07;;
37049;SDS011;22958;51.232;6.826;2023-05-15T04:59:33;179.37;;;69.30;;
37049;SDS011;22958;51.232;6.826;2023-05-15T05:01:58;168.57;;;67.73;;
37049;SDS011;22958;51.232;6.826;2023-05-15T05:04:24;175.90;;;66.45;;
37049;SDS011;22958;51.232;6.826;2023-05-15T05:06:50;161.67;;;64.53;;
37049;SDS011;22958;51.232;6.826;2023-05-15T05:09:17;156.70;;;68.43;;
37049;SDS011;22958;51.232;6.826;2023-05-15T05:11:43;147.65;;;65.13;;
37049;SDS011;22958;51.232;6.826;2023-05-15T05:14:09;156.93;;;62.43;;
37049;SDS011;22958;51.232;6.826;2023-05-15T05:16:35;141.70;;;61.20;;
37049;SDS011;22958;51.232;6.826;2023-05-15T05:19:01;147.45;;;60.75;;
37049;SDS011;22958;51.232;6.826;2023-05-15T05:21:27;141.97;;;60.30;;
37049;SDS011;22958;51.232;6.826;2023-05-15T05:23:52;138.40;;;58.60;;
37049;SDS011;22958;51.232;6.826;2023-05-15T05:26:18;103.03;;;48.67;;
37049;SDS011;22958;51.232;6.826;2023-05-15T05:28:43;100.70;;;44.50;;
37049;SDS011;22958;51.232;6.826;2023-05-15T05:31:09;80.27;;;41.20;;
37049;SDS011;22958;51.232;6.826;2023-05-15T05:33:34;86.97;;;39.73;;
37049;SDS011;22958;51.232;6.826;2023-05-15T05:36:00;73.83;;;37.00;;
37049;SDS011;22958;51.232;6.826;2023-05-15T05:38:26;73.13;;;36.77;;
37049;SDS011;22958;51.232;6.826;2023-05-15T05:40:51;73.90;;;38.60;;
37049;SDS011;22958;51.232;6.826;2023-05-15T05:43:17;75.80;;;37.50;;
37049;SDS011;22958;51.232;6.826;2023-05-15T05:45:44;79.10;;;42.00;;
37049;SDS011;22958;51.232;6.826;2023-05-15T05:48:10;82.33;;;40.57;;
37049;SDS011;22958;51.232;6.826;2023-05-15T05:53:02;76.30;;;39.08;;
37049;SDS011;22958;51.232;6.826;2023-05-15T05:55:28;73.77;;;38.83;;
37049;SDS011;22958;51.232;6.826;2023-05-15T05:57:54;75.97;;;40.07;;
37049;SDS011;22958;51.232;6.826;2023-05-15T06:00:19;82.00;;;41.17;;
37049;SDS011;22958;51.232;6.826;2023-05-15T06:02:45;73.50;;;40.37;;
37049;SDS011;22958;51.232;6.826;2023-05-15T06:05:10;78.30;;;39.70;;
37049;SDS011;22958;51.232;6.826;2023-05-15T06:07:36;79.00;;;40.85;;
37049;SDS011;22958;51.232;6.826;2023-05-15T06:10:02;67.60;;;37.23;;
37049;SDS011;22958;51.232;6.826;2023-05-15T06:12:28;82.40;;;37.43;;
37049;SDS011;22958;51.232;6.826;2023-05-15T06:14:53;66.87;;;36.20;;
37049;SDS011;22958;51.232;6.826;2023-05-15T06:17:19;71.33;;;39.00;;
37049;SDS011;22958;51.232;6.826;2023-05-15T06:19:45;73.30;;;38.40;;
37049;SDS011;22958;51.232;6.826;2023-05-15T06:22:10;76.60;;;40.00;;
37049;SDS011;22958;51.232;6.826;2023-05-15T06:24:36;70.97;;;38.47;;
37049;SDS011;22958;51.232;6.826;2023-05-15T06:27:01;68.10;;;37.10;;
37049;SDS011;22958;51.232;6.826;2023-05-15T06:29:27;70.87;;;39.23;;
37049;SDS011;22958;51.232;6.826;2023-05-15T06:31:53;82.10;;;42.13;;
37049;SDS011;22958;51.232;6.826;2023-05-15T06:34:18;82.00;;;41.60;;
37049;SDS011;22958;51.232;6.826;2023-05-15T06:36:44;71.90;;;41.00;;
37049;SDS011;22958;51.232;6.826;2023-05-15T06:39:09;81.30;;;39.93;;
37049;SDS011;22958;51.232;6.826;2023-05-15T06:41:35;69.77;;;39.43;;
37049;SDS011;22958;51.232;6.826;2023-05-15T06:44:02;73.00;;;40.30;;
37049;SDS011;22958;51.232;6.826;2023-05-15T06:46:28;70.07;;;40.15;;
37049;SDS011;22958;51.232;6.826;2023-05-15T06:48:53;79.37;;;41.63;;
37049;SDS011;22958;51.232;6.826;2023-05-15T06:51:19;82.70;;;41.87;;
37049;SDS011;22958;51.232;6.826;2023-05-15T06:53:44;74.03;;;40.70;;
37049;SDS011;22958;51.232;6.826;2023-05-15T06:56:10;73.47;;;42.33;;
37049;SDS011;22958;51.232;6.826;2023-05-15T06:58:35;81.37;;;42.23;;
37049;SDS011;22958;51.232;6.826;2023-05-15T07:01:01;74.27;;;42.90;;
37049;SDS011;22958;51.232;6.826;2023-05-15T07:03:28;76.93;;;42.47;;
37049;SDS011;22958;51.232;6.826;2023-05-15T07:05:54;81.80;;;43.95;;
37049;SDS011;22958;51.232;6.826;2023-05-15T07:08:19;79.23;;;43.67;;
37049;SDS011;22958;51.232;6.826;2023-05-15T07:10:45;76.90;;;41.93;;
37049;SDS011;22958;51.232;6.826;2023-05-15T07:13:10;79.70;;;43.23;;
37049;SDS011;22958;51.232;6.826;2023-05-15T07:15:36;76.60;;;40.57;;
37049;SDS011;22958;51.232;6.826;2023-05-15T07:18:01;77.07;;;41.10;;
37049;SDS011;22958;51.232;6.826;2023-05-15T07:20:27;66.23;;;40.20;;
37049;SDS011;22958;51.232;6.826;2023-05-15T07:22:53;68.17;;;38.10;;
37049;SDS011;22958;51.232;6.826;2023-05-15T07:25:18;62.50;;;36.53;;
37049;SDS011;22958;51.232;6.826;2023-05-15T07:27:44;61.93;;;36.17;;
37049;SDS011;22958;51.232;6.826;2023-05-15T07:30:09;56.77;;;35.00;;
37049;SDS011;22958;51.232;6.826;2023-05-15T07:32:35;53.05;;;31.63;;
37049;SDS011;22958;51.232;6.826;2023-05-15T07:35:01;51.90;;;32.00;;
37049;SDS011;22958;51.232;6.826;2023-05-15T07:37:28;50.42;;;30.13;;
37049;SDS011;22958;51.232;6.826;2023-05-15T07:39:54;54.00;;;30.98;;
37049;SDS011;22958;51.232;6.826;2023-05-15T07:42:20;49.90;;;29.63;;
37049;SDS011;22958;51.232;6.826;2023-05-15T07:44:46;59.10;;;30.87;;
37049;SDS011;22958;51.232;6.826;2023-05-15T07:47:11;52.07;;;29.67;;
37049;SDS011;22958;51.232;6.826;2023-05-15T07:49:37;44.17;;;29.73;;
37049;SDS011;22958;51.232;6.826;2023-05-15T07:52:02;54.23;;;30.47;;
37049;SDS011;22958;51.232;6.826;2023-05-15T07:54:28;58.73;;;30.10;;
37049;SDS011;22958;51.232;6.826;2023-05-15T07:56:56;54.08;;;27.50;;
37049;SDS011;22958;51.232;6.826;2023-05-15T07:59:22;52.15;;;27.85;;
37049;SDS011;22958;51.232;6.826;2023-05-15T08:01:48;48.33;;;27.47;;
37049;SDS011;22958;51.232;6.826;2023-05-15T08:04:13;52.67;;;28.33;;
37049;SDS011;22958;51.232;6.826;2023-05-15T08:06:39;48.37;;;27.07;;
37049;SDS011;22958;51.232;6.826;2023-05-15T08:09:06;48.92;;;27.80;;
37049;SDS011;22958;51.232;6.826;2023-05-15T08:11:32;50.90;;;27.60;;
37049;SDS011;22958;51.232;6.826;2023-05-15T08:13:57;50.70;;;29.10;;
37049;SDS011;22958;51.232;6.826;2023-05-15T08:16:23;45.53;;;27.57;;
37049;SDS011;22958;51.232;6.826;2023-05-15T08:18:48;50.17;;;28.10;;
37049;SDS011;22958;51.232;6.826;2023-05-15T08:21:17;47.83;;;25.52;;
37049;SDS011;22958;51.232;6.826;2023-05-15T08:23:42;44.93;;;25.70;;
37049;SDS011;22958;51.232;6.826;2023-05-15T08:26:08;48.43;;;26.83;;
37049;SDS011;22958;51.232;6.826;2023-05-15T08:28:34;46.43;;;26.00;;
37049;SDS011;22958;51.232;6.826;2023-05-15T08:31:00;44.33;;;27.23;;
37049;SDS011;22958;51.232;6.826;2023-05-15T08:33:25;48.13;;;26.50;;
37049;SDS011;22958;51.232;6.826;2023-05-15T08:35:51;48.13;;;27.27;;
37049;SDS011;22958;51.232;6.826;2023-05-15T08:38:17;46.63;;;25.52;;
37049;SDS011;22958;51.232;6.826;2023-05-15T08:40:45;44.40;;;25.97;;
37049;SDS011;22958;51.232;6.826;2023-05-15T08:43:12;39.40;;;23.80;;
37049;SDS011;22958;51.232;6.826;2023-05-15T08:45:41;40.40;;;23.05;;
37049;SDS011;22958;51.232;6.826;2023-05-15T08:48:16;45.38;;;25.98;;
37049;SDS011;22958;51.232;6.826;2023-05-15T08:50:45;40.42;;;24.60;;
37049;SDS011;22958;51.232;6.826;2023-05-15T08:53:11;41.88;;;24.40;;
37049;SDS011;22958;51.232;6.826;2023-05-15T08:55:38;45.15;;;23.13;;
37049;SDS011;22958;51.232;6.826;2023-05-15T08:58:04;37.08;;;21.67;;
37049;SDS011;22958;51.232;6.826;2023-05-15T09:00:30;34.97;;;20.02;;
37049;SDS011;22958;51.232;6.826;2023-05-15T09:02:57;36.38;;;21.67;;
37049;SDS011;22958;51.232;6.826;2023-05-15T09:05:24;37.28;;;21.30;;
37049;SDS011;22958;51.232;6.826;2023-05-15T09:07:50;37.30;;;23.13;;
37049;SDS011;22958;51.232;6.826;2023-05-15T09:10:18;38.53;;;22.35;;
37049;SDS011;22958;51.232;6.826;2023-05-15T09:12:44;47.78;;;25.40;;
37049;SDS011;22958;51.232;6.826;2023-05-15T09:15:14;46.10;;;24.77;;
37049;SDS011;22958;51.232;6.826;2023-05-15T09:17:41;45.55;;;22.90;;
37049;SDS011;22958;51.232;6.826;2023-05-15T09:22:57;45.28;;;24.38;;
37049;SDS011;22958;51.232;6.826;2023-05-15T09:25:37;36.80;;;24.17;;
37049;SDS011;22958;51.232;6.826;2023-05-15T09:28:09;43.78;;;24.92;;
37049;SDS011;22958;51.232;6.826;2023-05-15T09:30:47;44.72;;;25.95;;
37049;SDS011;22958;51.232;6.826;2023-05-15T09:33:15;38.20;;;24.30;;
37049;SDS011;22958;51.232;6.826;2023-05-15T09:35:41;40.63;;;24.67;;
37049;SDS011;22958;51.232;6.826;2023-05-15T09:38:12;47.33;;;26.10;;
37049;SDS011;22958;51.232;6.826;2023-05-15T09:40:38;36.70;;;24.05;;
37049;SDS011;22958;51.232;6.826;2023-05-15T09:43:08;34.53;;;22.50;;
37049;SDS011;22958;51.232;6.826;2023-05-15T09:45:35;42.55;;;23.25;;
37049;SDS011;22958;51.232;6.826;2023-05-15T09:48:04;40.60;;;22.77;;
37049;SDS011;22958;51.232;6.826;2023-05-15T09:50:32;35.17;;;22.45;;
37049;SDS011;22958;51.232;6.826;2023-05-15T09:52:59;38.25;;;22.15;;
37049;SDS011;22958;51.232;6.826;2023-05-15T09:55:24;38.47;;;23.47;;
37049;SDS011;22958;51.232;6.826;2023-05-15T09:58:10;39.03;;;23.45;;
37049;SDS011;22958;51.232;6.826;2023-05-15T10:00:37;40.45;;;22.80;;
37049;SDS011;22958;51.232;6.826;2023-05-15T10:03:04;53.85;;;24.67;;
37049;SDS011;22958;51.232;6.826;2023-05-15T10:07:56;36.05;;;20.92;;
37049;SDS011;22958;51.232;6.826;2023-05-15T10:10:22;46.25;;;22.20;;
37049;SDS011;22958;51.232;6.826;2023-05-15T10:15:18;34.75;;;20.67;;
37049;SDS011;22958;51.232;6.826;2023-05-15T10:17:46;33.75;;;18.40;;
37049;SDS011;22958;51.232;6.826;2023-05-15T10:20:13;25.80;;;15.10;;
37049;SDS011;22958;51.232;6.826;2023-05-15T10:22:42;31.42;;;18.65;;
37049;SDS011;22958;51.232;6.826;2023-05-15T10:27:54;42.80;;;22.52;;
37049;SDS011;22958;51.232;6.826;2023-05-15T10:30:21;38.47;;;21.85;;
37049;SDS011;22958;51.232;6.826;2023-05-15T10:32:47;38.63;;;19.30;;
37049;SDS011;22958;51.232;6.826;2023-05-15T10:35:13;28.15;;;18.55;;
37049;SDS011;22958;51.232;6.826;2023-05-15T10:40:07;38.35;;;21.25;;
37049;SDS011;22958;51.232;6.826;2023-05-15T10:42:34;30.60;;;20.02;;
37049;SDS011;22958;51.232;6.826;2023-05-15T10:45:01;40.58;;;20.25;;
37049;SDS011;22958;51.232;6.826;2023-05-15T10:47:28;32.30;;;19.55;;
37049;SDS011;22958;51.232;6.826;2023-05-15T10:49:55;31.42;;;19.25;;
37049;SDS011;22958;51.232;6.826;2023-05-15T10:52:21;42.78;;;19.50;;
37049;SDS011;22958;51.232;6.826;2023-05-15T10:54:46;33.40;;;18.77;;
37049;SDS011;22958;51.232;6.826;2023-05-15T10:57:15;30.23;;;19.47;;
37049;SDS011;22958;51.232;6.826;2023-05-15T10:59:41;31.13;;;18.60;;
37049;SDS011;22958;51.232;6.826;2023-05-15T11:04:47;31.33;;;18.67;;
37049;SDS011;22958;51.232;6.826;2023-05-15T11:07:23;41.97;;;19.95;;
37049;SDS011;22958;51.232;6.826;2023-05-15T11:09:50;31.20;;;20.05;;
37049;SDS011;22958;51.232;6.826;2023-05-15T11:12:16;35.55;;;21.13;;
37049;SDS011;22958;51.232;6.826;2023-05-15T11:14:42;35.20;;;19.30;;
37049;SDS011;22958;51.232;6.826;2023-05-15T11:17:30;40.17;;;19.73;;
37049;SDS011;22958;51.232;6.826;2023-05-15T11:19:57;35.50;;;20.45;;
37049;SDS011;22958;51.232;6.826;2023-05-15T11:25:06;35.53;;;19.95;;
37049;SDS011;22958;51.232;6.826;2023-05-15T11:27:37;27.58;;;18.00;;
37049;SDS011;22958;51.232;6.826;2023-05-15T11:40:17;28.00;;;16.95;;
37049;SDS011;22958;51.232;6.826;2023-05-15T11:42:59;24.65;;;15.85;;
37049;SDS011;22958;51.232;6.826;2023-05-15T11:45:30;26.15;;;16.10;;
37049;SDS011;22958;51.232;6.826;2023-05-15T11:47:59;26.40;;;16.00;;
37049;SDS011;22958;51.232;6.826;2023-05-15T11:50:26;31.95;;;17.92;;
37049;SDS011;22958;51.232;6.826;2023-05-15T11:52:52;29.42;;;16.98;;
37049;SDS011;22958;51.232;6.826;2023-05-15T11:55:19;25.17;;;16.38;;
37049;SDS011;22958;51.232;6.826;2023-05-15T11:57:45;25.20;;;14.65;;
37049;SDS011;22958;51.232;6.826;2023-05-15T12:00:11;19.88;;;13.50;;
37049;SDS011;22958;51.232;6.826;2023-05-15T12:02:38;21.00;;;13.65;;
37049;SDS011;22958;51.232;6.826;2023-05-15T12:05:08;23.25;;;14.07;;
37049;SDS011;22958;51.232;6.826;2023-05-15T12:07:40;34.60;;;16.05;;
37049;SDS011;22958;51.232;6.826;2023-05-15T12:10:10;22.52;;;12.55;;
37049;SDS011;22958;51.232;6.826;2023-05-15T12:12:43;20.83;;;9.55;;
37049;SDS011;22958;51.232;6.826;2023-05-15T12:15:13;20.70;;;10.30;;
37049;SDS011;22958;51.232;6.826;2023-05-15T12:17:41;15.98;;;10.43;;
37049;SDS011;22958;51.232;6.826;2023-05-15T12:20:09;19.33;;;10.75;;
37049;SDS011;22958;51.232;6.826;2023-05-15T12:22:37;17.13;;;10.27;;
37049;SDS011;22958;51.232;6.826;2023-05-15T12:25:03;17.90;;;12.13;;
37049;SDS011;22958;51.232;6.826;2023-05-15T12:27:30;20.65;;;13.70;;
37049;SDS011;22958;51.232;6.826;2023-05-15T12:29:56;26.75;;;13.20;;
37049;SDS011;22958;51.232;6.826;2023-05-15T12:32:22;19.92;;;11.73;;
37049;SDS011;22958;51.232;6.826;2023-05-15T12:34:47;26.80;;;14.95;;
37049;SDS011;22958;51.232;6.826;2023-05-15T12:37:13;22.77;;;15.57;;
37049;SDS011;22958;51.232;6.826;2023-05-15T12:39:52;25.25;;;15.48;;
37049;SDS011;22958;51.232;6.826;2023-05-15T12:42:19;26.48;;;17.30;;
37049;SDS011;22958;51.232;6.826;2023-05-15T12:44:44;26.52;;;14.68;;
37049;SDS011;22958;51.232;6.826;2023-05-15T12:47:12;24.98;;;13.52;;
37049;SDS011;22958;51.232;6.826;2023-05-15T12:49:39;16.50;;;11.70;;
37049;SDS011;22958;51.232;6.826;2023-05-15T12:52:09;15.50;;;10.07;;
37049;SDS011;22958;51.232;6.826;2023-05-15T12:54:39;22.30;;;12.60;;
37049;SDS011;22958;51.232;6.826;2023-05-15T12:57:07;17.25;;;11.57;;
37049;SDS011;22958;51.232;6.826;2023-05-15T12:59:33;20.95;;;12.43;;
37049;SDS011;22958;51.232;6.826;2023-05-15T13:02:00;20.33;;;12.15;;
37049;SDS011;22958;51.232;6.826;2023-05-15T13:04:25;19.23;;;12.52;;
37049;SDS011;22958;51.232;6.826;2023-05-15T13:06:51;19.02;;;12.13;;
37049;SDS011;22958;51.232;6.826;2023-05-15T13:09:23;20.63;;;12.32;;
37049;SDS011;22958;51.232;6.826;2023-05-15T13:11:50;18.63;;;13.45;;
37049;SDS011;22958;51.232;6.826;2023-05-15T13:14:19;20.27;;;11.48;;
37049;SDS011;22958;51.232;6.826;2023-05-15T13:16:45;17.85;;;11.75;;
37049;SDS011;22958;51.232;6.826;2023-05-15T13:19:11;19.25;;;10.68;;
37049;SDS011;22958;51.232;6.826;2023-05-15T13:21:37;19.75;;;11.60;;
37049;SDS011;22958;51.232;6.826;2023-05-15T13:24:02;16.98;;;11.30;;
37049;SDS011;22958;51.232;6.826;2023-05-15T13:26:28;22.05;;;11.75;;
37049;SDS011;22958;51.232;6.826;2023-05-15T13:28:54;17.20;;;9.97;;
37049;SDS011;22958;51.232;6.826;2023-05-15T13:31:20;16.47;;;8.83;;
37049;SDS011;22958;51.232;6.826;2023-05-15T13:33:46;22.85;;;11.18;;
37049;SDS011;22958;51.232;6.826;2023-05-15T13:38:37;18.20;;;9.95;;
37049;SDS011;22958;51.232;6.826;2023-05-15T13:41:03;16.93;;;9.80;;
37049;SDS011;22958;51.232;6.826;2023-05-15T13:43:29;14.00;;;10.30;;
37049;SDS011;22958;51.232;6.826;2023-05-15T13:45:54;23.03;;;12.93;;
37049;SDS011;22958;51.232;6.826;2023-05-15T13:48:20;34.53;;;18.13;;
37049;SDS011;22958;51.232;6.826;2023-05-15T13:50:45;32.50;;;18.77;;
37049;SDS011;22958;51.232;6.826;2023-05-15T13:53:12;28.70;;;17.67;;
37049;SDS011;22958;51.232;6.826;2023-05-15T13:55:41;25.40;;;16.98;;
37049;SDS011;22958;51.232;6.826;2023-05-15T13:58:08;39.85;;;20.13;;
37049;SDS011;22958;51.232;6.826;2023-05-15T14:00:35;27.48;;;18.10;;
37049;SDS011;22958;51.232;6.826;2023-05-15T14:03:01;37.47;;;19.90;;
37049;SDS011;22958;51.232;6.826;2023-05-15T14:05:27;29.45;;;16.98;;
37049;SDS011;22958;51.232;6.826;2023-05-15T14:07:53;31.30;;;19.30;;
37049;SDS011;22958;51.232;6.826;2023-05-15T14:10:19;35.63;;;19.97;;
37049;SDS011;22958;51.232;6.826;2023-05-15T14:12:44;25.73;;;16.50;;
37049;SDS011;22958;51.232;6.826;2023-05-15T14:15:10;26.00;;;15.65;;
37049;SDS011;22958;51.232;6.826;2023-05-15T14:17:36;22.03;;;13.67;;
37049;SDS011;22958;51.232;6.826;2023-05-15T14:20:02;31.23;;;19.80;;
37049;SDS011;22958;51.232;6.826;2023-05-15T14:22:29;31.05;;;20.50;;
37049;SDS011;22958;51.232;6.826;2023-05-15T14:24:54;31.37;;;20.63;;
37049;SDS011;22958;51.232;6.826;2023-05-15T14:27:20;28.13;;;17.73;;
37049;SDS011;22958;51.232;6.826;2023-05-15T14:29:45;24.83;;;15.87;;
37049;SDS011;22958;51.232;6.826;2023-05-15T14:32:12;26.63;;;16.70;;
37049;SDS011;22958;51.232;6.826;2023-05-15T14:34:38;33.17;;;18.47;;
37049;SDS011;22958;51.232;6.826;2023-05-15T14:37:04;33.33;;;19.93;;
37049;SDS011;22958;51.232;6.826;2023-05-15T14:39:29;27.87;;;19.43;;
37049;SDS011;22958;51.232;6.826;2023-05-15T14:41:55;27.67;;;18.15;;
37049;SDS011;22958;51.232;6.826;2023-05-15T14:44:21;34.53;;;18.17;;
37049;SDS011;22958;51.232;6.826;2023-05-15T14:46:46;27.73;;;17.73;;
37049;SDS011;22958;51.232;6.826;2023-05-15T14:49:12;28.43;;;17.33;;
37049;SDS011;22958;51.232;6.826;2023-05-15T14:51:37;26.83;;;15.50;;
37049;SDS011;22958;51.232;6.826;2023-05-15T14:54:03;30.83;;;17.27;;
37049;SDS011;22958;51.232;6.826;2023-05-15T14:56:29;22.37;;;15.53;;
37049;SDS011;22958;51.232;6.826;2023-05-15T14:58:55;26.75;;;16.63;;
37049;SDS011;22958;51.232;6.826;2023-05-15T15:01:20;30.73;;;17.37;;
37049;SDS011;22958;51.232;6.826;2023-05-15T15:03:46;30.17;;;18.50;;
37049;SDS011;22958;51.232;6.826;2023-05-15T15:06:11;27.57;;;17.83;;
37049;SDS011;22958;51.232;6.826;2023-05-15T15:08:37;26.53;;;17.87;;